createdAt,value
2023-03-31T00:01:54.530Z,77.90
2023-03-31T00:04:26.595Z,78.10
2023-03-31T00:07:01.229Z,78.40
2023-03-31T00:09:33.628Z,78.70
2023-03-31T00:12:06.230Z,78.90
2023-03-31T00:14:38.280Z,79.10
2023-03-31T00:17:10.841Z,79.20
2023-03-31T00:19:43.125Z,79.40
2023-03-31T00:22:22.886Z,79.50
2023-03-31T00:24:54.948Z,79.70
2023-03-31T00:27:28.470Z,79.80
2023-03-31T00:30:00.696Z,80.00
2023-03-31T00:32:33.633Z,80.10
2023-03-31T00:35:06.332Z,80.20
2023-03-31T00:37:43.482Z,80.30
2023-03-31T00:40:15.573Z,80.40
2023-03-31T00:42:48.359Z,80.60
2023-03-31T00:45:28.202Z,80.70
2023-03-31T00:48:06.175Z,80.80
2023-03-31T00:50:44.425Z,80.70
2023-03-31T00:53:23.275Z,80.60
2023-03-31T00:55:59.254Z,80.70
2023-03-31T00:58:33.515Z,80.60
2023-03-31T01:01:05.734Z,80.50
2023-03-31T01:03:38.581Z,80.50
2023-03-31T01:06:11.162Z,80.50
2023-03-31T01:08:47.790Z,80.60
2023-03-31T01:11:22.297Z,80.70
2023-03-31T01:13:56.817Z,80.70
2023-03-31T01:16:29.350Z,80.90
2023-03-31T01:19:01.561Z,81.00
2023-03-31T01:22:00.146Z,81.20
2023-03-31T01:25:09.979Z,81.40
2023-03-31T01:27:58.964Z,81.60
2023-03-31T01:31:11.859Z,81.60
2023-03-31T01:34:13.696Z,81.60
2023-03-31T01:37:18.375Z,81.70
2023-03-31T01:40:10.233Z,81.80
2023-03-31T01:42:50.636Z,81.80
2023-03-31T01:45:33.962Z,81.80
2023-03-31T01:48:13.168Z,81.90
2023-03-31T01:50:49.020Z,82.10
2023-03-31T01:53:29.078Z,82.20
2023-03-31T01:56:08.772Z,82.40
2023-03-31T01:58:43.971Z,82.30
2023-03-31T02:01:21.189Z,82.30
2023-03-31T02:03:57.003Z,82.10
2023-03-31T02:06:35.387Z,81.70
2023-03-31T02:09:12.202Z,81.50
2023-03-31T02:11:48.513Z,81.30
2023-03-31T02:14:24.848Z,80.70
2023-03-31T02:16:58.793Z,80.70
2023-03-31T02:19:33.845Z,80.50
2023-03-31T02:22:08.148Z,80.30
2023-03-31T02:24:42.038Z,80.40
2023-03-31T02:27:24.022Z,80.50
2023-03-31T02:29:56.613Z,80.60
2023-03-31T02:32:32.600Z,80.70
2023-03-31T02:35:06.447Z,81.00
2023-03-31T02:37:39.196Z,81.20
2023-03-31T02:40:15.989Z,81.40
2023-03-31T02:42:51.079Z,81.60
2023-03-31T02:45:42.149Z,81.90
2023-03-31T02:48:18.814Z,82.40
2023-03-31T02:51:12.240Z,82.60
2023-03-31T02:53:58.022Z,82.80
2023-03-31T02:56:44.955Z,83.00
2023-03-31T02:59:29.873Z,83.60
2023-03-31T03:02:12.106Z,83.10
2023-03-31T03:05:13.029Z,83.20
2023-03-31T03:07:51.004Z,83.30
2023-03-31T03:10:30.785Z,83.40
2023-03-31T03:13:08.954Z,83.50
2023-03-31T03:15:48.040Z,83.50
2023-03-31T03:18:20.142Z,83.60
2023-03-31T03:20:52.978Z,83.60
2023-03-31T03:23:25.090Z,83.60
2023-03-31T03:25:57.950Z,83.70
2023-03-31T03:28:30.024Z,83.50
2023-03-31T03:31:04.832Z,84.00
2023-03-31T03:33:37.441Z,83.60
2023-03-31T03:36:10.112Z,83.60
2023-03-31T03:38:42.416Z,83.70
2023-03-31T03:41:14.546Z,83.60
2023-03-31T03:43:46.645Z,83.70
2023-03-31T03:46:21.352Z,83.70
2023-03-31T03:48:53.753Z,83.70
2023-03-31T03:51:25.942Z,83.70
2023-03-31T03:53:58.090Z,83.70
2023-03-31T03:56:30.202Z,84.00
2023-03-31T03:59:02.445Z,83.80
2023-03-31T04:01:37.698Z,83.80
2023-03-31T04:04:10.146Z,83.80
2023-03-31T04:06:42.626Z,83.80
2023-03-31T04:09:14.737Z,83.80
2023-03-31T04:11:46.829Z,83.80
2023-03-31T04:14:18.948Z,83.90
2023-03-31T04:16:56.535Z,83.80
2023-03-31T04:19:28.700Z,83.70
2023-03-31T04:22:03.126Z,83.70
2023-03-31T04:24:38.921Z,83.70
2023-03-31T04:27:13.624Z,83.80
2023-03-31T04:29:47.900Z,83.80
2023-03-31T04:32:23.241Z,83.90
2023-03-31T04:35:03.513Z,83.90
2023-03-31T04:37:35.630Z,84.10
2023-03-31T04:40:10.174Z,84.30
2023-03-31T04:42:42.343Z,84.40
2023-03-31T04:45:14.609Z,84.60
2023-03-31T04:47:49.336Z,84.80
2023-03-31T04:50:21.488Z,85.00
2023-03-31T04:52:53.610Z,85.10
2023-03-31T04:55:25.751Z,85.20
2023-03-31T04:57:57.998Z,85.30
2023-03-31T05:00:30.201Z,85.40
2023-03-31T05:03:07.043Z,85.60
2023-03-31T05:05:39.504Z,85.80
2023-03-31T05:08:11.599Z,85.80
2023-03-31T05:10:44.391Z,86.40
2023-03-31T05:13:16.490Z,86.10
2023-03-31T05:15:50.905Z,86.10
2023-03-31T05:18:25.762Z,86.30
2023-03-31T05:20:58.092Z,86.50
2023-03-31T05:23:30.914Z,86.50
2023-03-31T05:26:03.249Z,86.70
2023-03-31T05:28:36.011Z,86.80
2023-03-31T05:31:09.537Z,86.90
2023-03-31T05:33:44.490Z,87.10
2023-03-31T05:36:18.348Z,87.30
2023-03-31T05:38:50.545Z,87.60
2023-03-31T05:41:22.840Z,87.70
2023-03-31T05:43:54.995Z,87.90
2023-03-31T05:46:27.552Z,88.20
2023-03-31T05:49:02.932Z,88.40
2023-03-31T05:51:35.104Z,88.90
2023-03-31T05:54:07.458Z,89.20
2023-03-31T05:56:39.556Z,89.60
2023-03-31T05:59:11.839Z,90.00
2023-03-31T06:01:44.284Z,90.10
2023-03-31T06:04:19.242Z,90.30
2023-03-31T06:06:51.499Z,90.50
2023-03-31T06:09:23.965Z,90.70
2023-03-31T06:11:56.195Z,91.00
2023-03-31T06:14:28.652Z,91.20
2023-03-31T06:17:00.925Z,91.40
2023-03-31T06:19:36.249Z,91.70
2023-03-31T06:22:08.518Z,92.00
2023-03-31T06:24:40.854Z,92.20
2023-03-31T06:27:13.139Z,92.40
2023-03-31T06:29:45.291Z,92.70
2023-03-31T06:32:17.431Z,92.90
2023-03-31T06:34:52.076Z,93.20
2023-03-31T06:37:24.224Z,93.40
2023-03-31T06:39:56.332Z,93.60
2023-03-31T06:42:28.449Z,93.90
2023-03-31T06:45:00.569Z,94.10
2023-03-31T06:47:32.730Z,94.30
2023-03-31T06:50:09.806Z,94.60
2023-03-31T06:52:41.892Z,94.90
2023-03-31T06:55:15.722Z,95.10
2023-03-31T06:57:47.967Z,95.30
2023-03-31T07:00:23.033Z,95.80
2023-03-31T07:02:55.956Z,96.30
2023-03-31T07:05:30.824Z,96.60
2023-03-31T07:08:03.393Z,96.90
2023-03-31T07:10:35.596Z,97.10
2023-03-31T07:13:07.728Z,97.40
2023-03-31T07:15:39.829Z,97.60
2023-03-31T07:18:12.780Z,97.80
2023-03-31T07:20:49.616Z,98.10
2023-03-31T07:23:21.834Z,98.50
2023-03-31T07:25:54.038Z,98.80
2023-03-31T07:28:26.480Z,99.40
2023-03-31T07:30:58.656Z,99.70
2023-03-31T07:33:31.051Z,99.80
2023-03-31T07:36:12.645Z,99.90
2023-03-31T07:38:48.741Z,99.80
2023-03-31T07:41:22.375Z,99.90
2023-03-31T07:43:54.524Z,99.90
2023-03-31T07:46:28.454Z,99.80
2023-03-31T07:49:03.328Z,99.80
2023-03-31T07:51:38.060Z,99.80
2023-03-31T07:54:10.152Z,99.70
2023-03-31T07:56:42.210Z,99.70
2023-03-31T07:59:14.748Z,99.70
2023-03-31T08:01:46.994Z,99.60
2023-03-31T08:04:19.684Z,99.50
2023-03-31T08:06:54.413Z,99.50
2023-03-31T08:09:26.696Z,99.50
2023-03-31T08:11:58.813Z,99.50
2023-03-31T08:14:40.507Z,99.20
2023-03-31T08:17:13.493Z,98.60
2023-03-31T08:19:45.808Z,98.10
2023-03-31T08:22:20.984Z,97.90
2023-03-31T08:24:53.050Z,97.60
2023-03-31T08:27:26.339Z,97.30
2023-03-31T08:30:03.534Z,97.00
2023-03-31T08:32:36.297Z,96.40
2023-03-31T08:35:09.874Z,95.90
2023-03-31T08:37:44.529Z,95.50
2023-03-31T08:40:21.552Z,95.20
2023-03-31T08:42:56.514Z,94.30
2023-03-31T08:45:33.825Z,94.20
2023-03-31T08:48:11.436Z,94.00
2023-03-31T08:50:46.274Z,93.90
2023-03-31T08:53:25.484Z,93.70
2023-03-31T08:55:59.425Z,93.40
2023-03-31T08:58:39.902Z,93.20
2023-03-31T09:01:24.655Z,92.50
2023-03-31T09:04:16.233Z,92.50
2023-03-31T09:06:57.125Z,91.60
2023-03-31T09:09:39.954Z,90.70
2023-03-31T09:12:18.309Z,90.10
2023-03-31T09:14:59.140Z,89.40
2023-03-31T09:17:34.714Z,89.00
2023-03-31T09:20:14.474Z,87.60
2023-03-31T09:22:50.932Z,86.40
2023-03-31T09:25:28.601Z,86.20
2023-03-31T09:28:04.685Z,86.70
2023-03-31T09:30:38.564Z,86.20
2023-03-31T09:33:14.877Z,86.20
2023-03-31T09:35:48.326Z,83.90
2023-03-31T09:38:21.627Z,80.80
2023-03-31T09:40:56.976Z,81.20
2023-03-31T09:43:31.813Z,80.20
2023-03-31T09:46:14.884Z,78.20
2023-03-31T09:48:54.439Z,77.90
2023-03-31T09:51:30.747Z,76.70
2023-03-31T09:54:10.726Z,77.30
2023-03-31T09:56:53.506Z,77.30
2023-03-31T09:59:32.278Z,76.60
2023-03-31T10:02:17.341Z,75.80
2023-03-31T10:04:49.440Z,93.90
2023-03-31T10:09:58.192Z,96.30
2023-03-31T10:12:33.086Z,94.60
2023-03-31T10:17:55.282Z,97.90
2023-03-31T10:20:39.533Z,91.40
2023-03-31T10:23:16.773Z,89.70
2023-03-31T10:25:50.058Z,86.00
2023-03-31T10:28:25.621Z,75.40
2023-03-31T10:31:03.434Z,75.30
2023-03-31T10:33:45.148Z,76.20
2023-03-31T10:36:22.768Z,72.80
2023-03-31T10:38:55.632Z,71.20
2023-03-31T10:41:30.002Z,70.80
2023-03-31T10:44:05.567Z,71.80
2023-03-31T10:46:43.410Z,72.30
2023-03-31T10:49:17.408Z,71.90
2023-03-31T10:51:52.221Z,71.80
2023-03-31T10:54:25.162Z,71.80
2023-03-31T10:57:01.639Z,71.00
2023-03-31T10:59:52.994Z,71.00
2023-03-31T11:02:59.337Z,71.40
2023-03-31T11:05:39.239Z,71.40
2023-03-31T11:08:35.415Z,71.80
2023-03-31T11:11:20.167Z,71.80
2023-03-31T11:14:00.584Z,71.40
2023-03-31T11:16:44.465Z,72.00
2023-03-31T11:19:27.366Z,71.70
2023-03-31T11:22:07.236Z,72.20
2023-03-31T11:24:54.790Z,72.20
2023-03-31T11:27:43.600Z,74.60
2023-03-31T11:30:20.615Z,93.80
2023-03-31T11:33:06.252Z,79.90
2023-03-31T11:35:47.531Z,83.80
2023-03-31T11:38:44.955Z,88.30
2023-03-31T11:41:21.729Z,92.10
2023-03-31T11:43:55.932Z,94.70
2023-03-31T11:46:36.048Z,97.00
2023-03-31T11:49:18.122Z,97.80
2023-03-31T11:51:55.857Z,98.30
2023-03-31T11:54:33.182Z,99.20
2023-03-31T11:57:12.751Z,99.30
2023-03-31T11:59:49.451Z,98.50
2023-03-31T12:02:36.646Z,97.00
2023-03-31T12:05:16.014Z,96.30
2023-03-31T12:07:53.133Z,96.40
2023-03-31T12:10:34.602Z,96.30
2023-03-31T12:13:31.461Z,95.40
2023-03-31T12:16:10.731Z,94.30
2023-03-31T12:18:57.405Z,92.70
2023-03-31T12:21:34.129Z,91.80
2023-03-31T12:24:08.404Z,91.60
2023-03-31T12:26:50.078Z,92.00
2023-03-31T12:29:29.741Z,91.10
2023-03-31T12:32:06.064Z,90.50
2023-03-31T12:34:44.472Z,88.40
2023-03-31T12:37:55.884Z,88.10
2023-03-31T12:40:40.254Z,88.60
2023-03-31T12:43:44.123Z,86.20
2023-03-31T12:46:30.893Z,83.60
2023-03-31T12:49:21.644Z,81.80
2023-03-31T12:52:02.556Z,81.80
2023-03-31T12:55:04.948Z,79.50
2023-03-31T12:57:39.648Z,78.10
2023-03-31T13:00:32.579Z,76.40
2023-03-31T13:03:34.969Z,75.10
2023-03-31T13:06:10.098Z,75.80
2023-03-31T13:08:56.191Z,75.80
2023-03-31T13:11:40.704Z,75.90
2023-03-31T13:14:21.427Z,76.30
2023-03-31T13:17:11.375Z,76.50
2023-03-31T13:19:43.738Z,77.30
2023-03-31T13:22:31.573Z,78.20
2023-03-31T13:25:42.784Z,78.90
2023-03-31T13:28:27.139Z,76.40
2023-03-31T13:31:03.272Z,75.70
2023-03-31T13:33:39.920Z,75.30
2023-03-31T13:36:43.761Z,75.60
2023-03-31T13:39:42.987Z,74.50
2023-03-31T13:42:44.638Z,73.40
2023-03-31T13:45:32.114Z,72.00
2023-03-31T13:48:19.154Z,71.30
2023-03-31T13:51:06.258Z,70.90
2023-03-31T13:54:05.140Z,71.70
2023-03-31T13:56:52.846Z,71.90
2023-03-31T13:59:56.077Z,71.30
2023-03-31T14:02:38.689Z,70.40
2023-03-31T14:05:43.512Z,70.20
2023-03-31T14:08:24.195Z,70.70
2023-03-31T14:11:17.290Z,70.50
2023-03-31T14:14:03.860Z,70.20
2023-03-31T14:16:39.756Z,70.90
2023-03-31T14:19:42.829Z,71.20
2023-03-31T14:22:32.081Z,71.20
2023-03-31T14:25:15.828Z,70.80
2023-03-31T14:27:58.641Z,70.50
2023-03-31T14:30:42.878Z,70.90
2023-03-31T14:33:30.376Z,70.80
2023-03-31T14:36:10.764Z,69.90
2023-03-31T14:38:45.772Z,69.60
2023-03-31T14:41:29.842Z,68.90
2023-03-31T14:44:04.721Z,68.70
2023-03-31T14:46:39.172Z,69.30
2023-03-31T14:49:20.212Z,69.90
2023-03-31T14:51:53.466Z,70.50
2023-03-31T14:54:28.385Z,69.80
2023-03-31T14:57:02.131Z,70.00
2023-03-31T14:59:35.982Z,70.30
2023-03-31T15:02:14.978Z,70.40
2023-03-31T15:04:49.974Z,70.70
2023-03-31T15:07:23.945Z,70.90
2023-03-31T15:09:58.906Z,71.10
2023-03-31T15:12:31.420Z,71.20
2023-03-31T15:15:06.522Z,71.40
2023-03-31T15:17:41.519Z,71.20
2023-03-31T15:20:31.750Z,71.10
2023-03-31T15:23:25.112Z,71.20
2023-03-31T15:26:04.275Z,71.40
2023-03-31T15:28:40.388Z,71.70
2023-03-31T15:31:14.602Z,72.00
2023-03-31T15:33:47.605Z,72.10
2023-03-31T15:36:21.585Z,72.20
2023-03-31T15:38:57.446Z,72.10
2023-03-31T15:41:32.850Z,72.20
2023-03-31T15:44:07.299Z,72.50
2023-03-31T15:46:55.091Z,72.40
2023-03-31T15:49:27.405Z,72.60
2023-03-31T15:52:01.472Z,72.60
2023-03-31T15:54:37.095Z,72.90
2023-03-31T15:57:18.100Z,72.90
2023-03-31T16:02:46.489Z,73.50
2023-03-31T16:05:37.426Z,73.40
2023-03-31T16:08:21.132Z,72.70
2023-03-31T16:11:01.345Z,72.70
2023-03-31T16:13:40.942Z,73.00
2023-03-31T16:16:16.336Z,73.20
2023-03-31T16:18:51.289Z,74.00
2023-03-31T16:21:26.544Z,73.80
2023-03-31T16:24:00.528Z,74.20
2023-03-31T16:26:33.132Z,74.50
2023-03-31T16:29:08.089Z,74.90
2023-03-31T16:31:41.175Z,75.30
2023-03-31T16:34:13.463Z,75.60
2023-03-31T16:36:45.629Z,76.00
2023-03-31T16:39:17.742Z,76.30
2023-03-31T16:41:49.871Z,76.40
2023-03-31T16:44:24.630Z,76.60
2023-03-31T16:46:56.973Z,76.60
2023-03-31T16:49:29.364Z,76.60
2023-03-31T16:52:01.952Z,76.40
2023-03-31T16:54:34.041Z,76.90
2023-03-31T16:57:07.247Z,78.00
2023-03-31T16:59:42.736Z,79.30
2023-03-31T17:02:14.863Z,81.10
2023-03-31T17:04:46.988Z,82.50
2023-03-31T17:07:19.059Z,84.10
2023-03-31T17:09:51.587Z,85.60
2023-03-31T17:12:23.665Z,87.00
2023-03-31T17:14:58.339Z,88.30
2023-03-31T17:17:31.123Z,89.90
2023-03-31T17:20:03.557Z,90.80
2023-03-31T17:22:36.598Z,91.70
2023-03-31T17:25:10.016Z,92.60
2023-03-31T17:27:42.372Z,93.30
2023-03-31T17:30:17.404Z,95.00
2023-03-31T17:32:51.542Z,96.10
2023-03-31T17:35:24.769Z,96.10
2023-03-31T17:37:57.516Z,97.20
2023-03-31T17:40:31.668Z,98.40
2023-03-31T17:43:04.002Z,99.70
2023-03-31T17:45:38.746Z,99.90
2023-03-31T17:48:10.943Z,99.90
2023-03-31T17:50:43.205Z,99.90
2023-03-31T17:53:15.312Z,99.90
2023-03-31T17:55:47.428Z,99.90
2023-03-31T17:58:19.506Z,99.90
2023-03-31T18:00:54.411Z,99.90
2023-03-31T18:06:06.770Z,99.90
2023-03-31T18:08:39.437Z,99.90
2023-03-31T18:11:12.112Z,99.90
2023-03-31T18:13:44.896Z,99.90
2023-03-31T18:16:19.804Z,99.90
2023-03-31T18:18:52.186Z,99.90
2023-03-31T18:21:24.506Z,99.90
2023-03-31T18:23:56.677Z,99.90
2023-03-31T18:26:29.099Z,99.90
2023-03-31T18:29:01.267Z,99.90
2023-03-31T18:31:36.171Z,99.90
2023-03-31T18:34:08.603Z,99.90
2023-03-31T18:36:41.237Z,99.90
2023-03-31T18:39:13.392Z,99.90
2023-03-31T18:41:47.892Z,99.90
2023-03-31T18:44:21.819Z,99.90
2023-03-31T18:46:56.812Z,99.90
2023-03-31T18:49:29.127Z,99.90
2023-03-31T18:52:02.654Z,99.90
2023-03-31T18:54:34.752Z,99.90
2023-03-31T18:57:07.512Z,99.90
2023-03-31T18:59:39.690Z,99.90
2023-03-31T19:02:18.145Z,99.90
2023-03-31T19:04:50.341Z,99.90
2023-03-31T19:07:22.428Z,99.90
2023-03-31T19:09:54.538Z,99.90
2023-03-31T19:12:26.723Z,99.90
2023-03-31T19:14:58.823Z,99.90
2023-03-31T19:17:33.518Z,99.90
2023-03-31T19:20:06.958Z,99.90
2023-03-31T19:22:39.051Z,99.90
2023-03-31T19:25:11.712Z,99.90
2023-03-31T19:27:44.699Z,99.90
2023-03-31T19:30:18.682Z,99.90
2023-03-31T19:32:53.954Z,99.90
2023-03-31T19:35:27.624Z,99.90
2023-03-31T19:38:00.123Z,99.90
2023-03-31T19:40:32.188Z,99.90
2023-03-31T19:43:04.455Z,99.90
2023-03-31T19:45:37.348Z,99.90
2023-03-31T19:48:12.914Z,99.70
2023-03-31T19:50:47.567Z,99.50
2023-03-31T19:53:19.967Z,99.60
2023-03-31T19:55:56.387Z,99.60
2023-03-31T19:58:29.404Z,99.50
2023-03-31T20:01:01.996Z,99.60
2023-03-31T20:03:36.942Z,99.70
2023-03-31T20:06:11.922Z,99.90
2023-03-31T20:08:44.253Z,99.90
2023-03-31T20:11:16.769Z,99.90
2023-03-31T20:13:49.326Z,99.90
2023-03-31T20:16:22.878Z,99.90
2023-03-31T20:18:59.761Z,99.90
2023-03-31T20:21:33.745Z,99.90
2023-03-31T20:24:07.040Z,99.90
2023-03-31T20:26:39.150Z,99.90
2023-03-31T20:29:12.183Z,99.90
2023-03-31T20:31:44.738Z,99.90
2023-03-31T20:34:19.695Z,99.90
2023-03-31T20:36:52.072Z,99.90
2023-03-31T20:39:24.215Z,99.90
2023-03-31T20:41:56.540Z,99.90
2023-03-31T20:44:28.700Z,99.90
2023-03-31T20:47:00.856Z,99.90
2023-03-31T20:49:35.856Z,99.90
2023-03-31T20:52:07.965Z,99.90
2023-03-31T20:54:40.032Z,99.90
2023-03-31T20:57:12.223Z,99.90
2023-03-31T20:59:44.468Z,99.90
2023-03-31T21:02:16.808Z,99.90
2023-03-31T21:04:52.737Z,99.90
2023-03-31T21:07:25.037Z,99.90
2023-03-31T21:09:57.133Z,99.90
2023-03-31T21:12:29.698Z,99.90
2023-03-31T21:15:01.839Z,99.90
2023-03-31T21:17:33.989Z,99.90
2023-03-31T21:20:10.134Z,99.90
2023-03-31T21:22:42.223Z,99.90
2023-03-31T21:25:14.465Z,99.90
2023-03-31T21:27:46.555Z,99.90
2023-03-31T21:30:19.524Z,99.50
2023-03-31T21:32:51.687Z,99.00
2023-03-31T21:35:26.379Z,98.80
2023-03-31T21:37:58.477Z,99.00
2023-03-31T21:40:30.675Z,98.90
2023-03-31T21:43:02.803Z,99.00
2023-03-31T21:45:35.109Z,99.30
2023-03-31T21:48:09.379Z,99.60
2023-03-31T21:50:46.206Z,99.50
2023-03-31T21:53:18.807Z,99.90
2023-03-31T21:55:52.868Z,99.90
2023-03-31T21:58:28.783Z,99.90
2023-03-31T22:01:04.111Z,99.90
2023-03-31T22:03:36.810Z,99.90
2023-03-31T22:06:11.716Z,99.90
2023-03-31T22:08:44.185Z,99.90
2023-03-31T22:11:16.302Z,99.90
2023-03-31T22:13:48.395Z,99.90
2023-03-31T22:16:22.050Z,99.90
2023-03-31T22:18:55.163Z,99.90
2023-03-31T22:21:29.926Z,99.90
2023-03-31T22:24:02.097Z,99.90
2023-03-31T22:26:34.217Z,99.90
2023-03-31T22:29:06.384Z,99.90
2023-03-31T22:31:38.464Z,99.90
2023-03-31T22:34:10.612Z,99.90
2023-03-31T22:36:45.581Z,99.90
2023-03-31T22:39:18.052Z,99.90
2023-03-31T22:41:50.620Z,99.90
2023-03-31T22:44:22.929Z,99.90
2023-03-31T22:46:55.090Z,99.90
2023-03-31T22:49:27.293Z,99.90
2023-03-31T22:52:02.021Z,99.90
2023-03-31T22:54:34.129Z,99.90
2023-03-31T22:57:06.338Z,99.90
2023-03-31T22:59:38.502Z,99.90
2023-03-31T23:02:10.756Z,99.90
2023-03-31T23:04:42.823Z,99.90
2023-03-31T23:07:18.092Z,99.90
2023-03-31T23:09:50.182Z,99.90
2023-03-31T23:12:24.641Z,99.90
2023-03-31T23:14:56.798Z,99.90
2023-03-31T23:17:29.080Z,99.20
2023-03-31T23:20:02.100Z,98.40
2023-03-31T23:22:36.995Z,97.40
2023-03-31T23:25:09.613Z,96.90
2023-03-31T23:27:41.764Z,96.60
2023-03-31T23:30:15.168Z,96.10
2023-03-31T23:32:47.763Z,95.60
2023-03-31T23:35:19.884Z,95.30
2023-03-31T23:37:54.569Z,95.00
2023-03-31T23:40:27.388Z,94.80
2023-03-31T23:42:59.465Z,94.60
2023-03-31T23:45:31.853Z,94.60
2023-03-31T23:48:04.820Z,94.20
2023-03-31T23:50:38.014Z,94.20
2023-03-31T23:53:13.320Z,93.70
2023-03-31T23:55:54.058Z,93.20
2023-03-31T23:58:26.957Z,94.10
